カラチ の空港の天気 - METARとTAF

ジンナー国際空港(カラチ) ( OPKC / KHI ) - パキスタン Karachi
飛行場実況気象(Metar)
観測時間11/27 13:00 PKT (11/27 08:00 UTC)
風向・風速静穏 0m/s
視程3000m
天気現象
全天の4割程度の雲 雲底高度 910m
気温29℃
湿度45%
気圧1011hPa
METAROPKC 270800Z 00000KT 3000 FU SCT030 29/16 Q1011 NOSIG
過去の天気等 Google飛行場航空写真 Wunderground天気予報

過去48時間のMETAR

飛行場予報(TAF)
発表時間: 11/27 08:30 PKT (11/27 03:30 UTC)
予報対象時間: 27日11時 PKT ~ 28日17時 PKT
風向・風速西南西 6m/s
視程6000m
なし
27日23時 PKT ~ 28日1時 PKT に徐々に
風向・風速不定 2m/s
視程4000m
天気現象
なし
28日5時 PKT ~ 28日9時 PKT に一時的に
風向・風速静穏
視程1500m
天気現象もや
なし
28日9時 PKT ~ 28日11時 PKT に徐々に
風向・風速西 6m/s
視程6000m
なし
TAF OPKC 270330Z 2706/2812 24012KT 6000 NSC
BECMG 2718/2720 VRB03KT 4000 FU NSC
TEMPO 2800/2804 00000KT 1500 BR NSC
BECMG 2804/2806 27012KT 6000 NSC